createdAt,value
2022-08-07T00:01:43.781Z,69.47
2022-08-07T00:04:03.377Z,69.71
2022-08-07T00:06:33.462Z,69.42
2022-08-07T00:09:16.326Z,69.45
2022-08-07T00:11:54.131Z,69.68
2022-08-07T00:14:25.510Z,69.39
2022-08-07T00:16:57.380Z,70.05
2022-08-07T00:19:26.169Z,70.29
2022-08-07T00:22:02.342Z,69.71
2022-08-07T00:24:31.729Z,70.09
2022-08-07T00:27:06.533Z,70.04
2022-08-07T00:29:36.872Z,70.31
2022-08-07T00:32:05.980Z,70.22
2022-08-07T00:34:33.631Z,70.10
2022-08-07T00:37:05.001Z,70.17
2022-08-07T00:39:32.481Z,70.49
2022-08-07T00:42:05.047Z,70.92
2022-08-07T00:44:33.936Z,70.77
2022-08-07T00:47:06.480Z,70.88
2022-08-07T00:50:20.850Z,70.97
2022-08-07T00:52:29.410Z,71.15
2022-08-07T00:55:00.121Z,71.58
2022-08-07T00:57:34.115Z,72.11
2022-08-07T01:00:01.149Z,71.24
2022-08-07T01:02:29.744Z,71.11
2022-08-07T01:04:58.862Z,71.42
2022-08-07T01:07:27.714Z,71.37
2022-08-07T01:10:06.172Z,70.80
2022-08-07T01:12:38.802Z,71.08
2022-08-07T01:15:06.212Z,70.52
2022-08-07T01:17:34.363Z,70.84
2022-08-07T01:20:16.633Z,71.81
2022-08-07T01:22:54.199Z,72.29
2022-08-07T01:25:54.154Z,72.60
2022-08-07T01:28:18.829Z,72.96
2022-08-07T01:30:47.054Z,73.00
2022-08-07T01:33:13.855Z,72.96
2022-08-07T01:35:54.047Z,72.85
2022-08-07T01:38:25.072Z,72.41
2022-08-07T01:40:55.253Z,72.26
2022-08-07T01:43:23.994Z,73.14
2022-08-07T01:45:54.763Z,73.19
2022-08-07T01:48:30.539Z,73.64
2022-08-07T01:51:24.683Z,73.59
2022-08-07T01:54:09.086Z,73.70
2022-08-07T01:56:53.205Z,73.68
2022-08-07T01:59:31.078Z,73.51
2022-08-07T02:02:10.439Z,73.66
2022-08-07T02:04:56.209Z,73.98
2022-08-07T02:07:36.143Z,74.22
2022-08-07T02:10:14.559Z,74.31
2022-08-07T02:12:46.570Z,74.21
2022-08-07T02:15:22.606Z,74.62
2022-08-07T02:17:51.787Z,74.77
2022-08-07T02:20:23.754Z,74.76
2022-08-07T02:22:55.317Z,74.42
2022-08-07T02:26:10.735Z,74.34
2022-08-07T02:28:14.204Z,74.52
2022-08-07T02:30:52.356Z,74.64
2022-08-07T02:33:20.309Z,74.63
2022-08-07T02:36:28.805Z,74.88
2022-08-07T02:38:38.684Z,74.83
2022-08-07T02:41:07.933Z,75.43
2022-08-07T02:43:39.553Z,75.25
2022-08-07T02:46:07.418Z,75.82
2022-08-07T02:48:34.489Z,75.43
2022-08-07T02:51:07.301Z,74.99
2022-08-07T02:53:55.865Z,75.36
2022-08-07T02:56:25.169Z,75.92
2022-08-07T02:58:55.706Z,75.81
2022-08-07T03:01:35.922Z,76.14
2022-08-07T03:04:07.141Z,76.21
2022-08-07T03:06:41.394Z,76.50
2022-08-07T03:09:11.243Z,77.10
2022-08-07T03:11:39.242Z,77.23
2022-08-07T03:14:20.182Z,76.56
2022-08-07T03:16:49.301Z,76.81
2022-08-07T03:19:16.609Z,76.77
2022-08-07T03:21:50.753Z,76.86
2022-08-07T03:24:26.992Z,77.15
2022-08-07T03:26:59.732Z,77.20
2022-08-07T03:29:33.861Z,76.95
2022-08-07T03:32:07.157Z,77.67
2022-08-07T03:34:47.253Z,77.08
2022-08-07T03:37:32.579Z,77.23
2022-08-07T03:40:15.869Z,77.16
2022-08-07T03:42:43.835Z,76.97
2022-08-07T03:45:11.761Z,77.00
2022-08-07T03:47:47.773Z,76.90
2022-08-07T03:50:23.134Z,77.29
2022-08-07T03:52:51.951Z,77.35
2022-08-07T03:55:18.740Z,77.34
2022-08-07T03:58:35.292Z,76.98
2022-08-07T04:00:37.860Z,77.33
2022-08-07T04:03:13.207Z,77.00
2022-08-07T04:05:42.525Z,76.84
2022-08-07T04:08:16.201Z,76.97
2022-08-07T04:10:54.411Z,77.41
2022-08-07T04:14:10.927Z,77.58
2022-08-07T04:16:31.048Z,76.88
2022-08-07T04:19:01.391Z,76.79
2022-08-07T04:21:33.353Z,76.06
2022-08-07T04:24:07.573Z,75.99
2022-08-07T04:26:34.881Z,75.48
2022-08-07T04:29:03.141Z,75.15
2022-08-07T04:31:38.841Z,75.06
2022-08-07T04:34:24.323Z,75.90
2022-08-07T04:36:54.766Z,75.68
2022-08-07T04:39:25.793Z,76.13
2022-08-07T04:41:53.936Z,76.16
2022-08-07T04:44:20.882Z,76.56
2022-08-07T04:47:57.222Z,77.25
2022-08-07T04:50:17.554Z,77.00
2022-08-07T04:53:07.514Z,77.33
2022-08-07T04:58:09.707Z,77.43
2022-08-07T04:59:17.825Z,76.75
2022-08-07T05:02:05.848Z,76.69
2022-08-07T05:05:53.206Z,77.07
2022-08-07T05:08:18.074Z,76.52
2022-08-07T05:11:19.303Z,75.68
2022-08-07T05:14:55.859Z,75.60
2022-08-07T05:17:00.505Z,75.07
2022-08-07T05:19:44.824Z,74.23
2022-08-07T05:22:13.522Z,74.14
2022-08-07T05:24:57.220Z,74.69
2022-08-07T05:28:02.835Z,74.63
2022-08-07T05:30:25.103Z,74.16
2022-08-07T05:33:02.492Z,74.02
2022-08-07T05:35:42.081Z,74.75
2022-08-07T05:38:11.365Z,74.74
2022-08-07T05:40:50.300Z,75.00
2022-08-07T05:43:18.672Z,75.61
2022-08-07T05:45:48.065Z,76.05
2022-08-07T05:48:15.491Z,76.28
2022-08-07T05:50:43.781Z,76.26
2022-08-07T05:54:12.867Z,76.01
2022-08-07T05:56:02.206Z,76.08
2022-08-07T05:58:36.684Z,76.96
2022-08-07T06:01:06.018Z,76.49
2022-08-07T06:03:56.468Z,76.55
2022-08-07T06:06:29.327Z,75.31
2022-08-07T06:08:58.260Z,76.14
2022-08-07T06:11:25.835Z,75.88
2022-08-07T06:14:11.884Z,75.87
2022-08-07T06:16:39.991Z,75.23
2022-08-07T06:19:08.157Z,75.16
2022-08-07T06:22:16.833Z,75.06
2022-08-07T06:24:45.570Z,74.67
2022-08-07T06:27:44.131Z,74.56
2022-08-07T06:30:31.800Z,74.53
2022-08-07T06:32:57.689Z,74.54
2022-08-07T06:35:24.448Z,73.99
2022-08-07T06:38:08.167Z,73.97
2022-08-07T06:40:50.120Z,73.54
2022-08-07T06:43:20.999Z,73.20
2022-08-07T06:45:48.966Z,73.01
2022-08-07T06:48:16.206Z,73.37
2022-08-07T06:50:53.032Z,73.21
2022-08-07T06:55:27.499Z,72.69
2022-08-07T06:56:15.067Z,72.85
2022-08-07T07:00:12.710Z,72.21
2022-08-07T07:01:43.914Z,71.93
2022-08-07T07:04:32.559Z,71.70
2022-08-07T07:07:02.011Z,71.65
2022-08-07T07:09:31.685Z,71.34
2022-08-07T07:12:19.561Z,71.35
2022-08-07T07:15:16.213Z,70.71
2022-08-07T07:18:12.189Z,70.59
2022-08-07T07:20:45.676Z,69.88
2022-08-07T07:24:09.951Z,69.69
2022-08-07T07:26:34.046Z,70.04
2022-08-07T07:29:56.197Z,70.09
2022-08-07T07:31:55.532Z,69.74
2022-08-07T07:34:30.983Z,70.08
2022-08-07T07:37:14.959Z,70.27
2022-08-07T07:39:54.532Z,70.38
2022-08-07T07:42:25.809Z,70.09
2022-08-07T07:45:02.314Z,70.35
2022-08-07T07:47:51.719Z,69.51
2022-08-07T07:50:36.104Z,69.34
2022-08-07T07:53:20.550Z,68.37
2022-08-07T07:55:58.001Z,69.08
2022-08-07T07:58:37.068Z,69.74
2022-08-07T08:02:01.635Z,69.51
2022-08-07T08:04:10.201Z,69.37
2022-08-07T08:06:50.727Z,69.15
2022-08-07T08:09:22.711Z,68.36
2022-08-07T08:12:03.102Z,71.26
2022-08-07T08:14:37.016Z,70.71
2022-08-07T08:17:55.781Z,69.91
2022-08-07T08:20:18.552Z,69.47
2022-08-07T08:23:08.370Z,68.11
2022-08-07T08:25:58.273Z,67.20
2022-08-07T08:28:38.644Z,66.46
2022-08-07T08:31:15.874Z,67.08
2022-08-07T08:33:49.453Z,66.48
2022-08-07T08:36:25.636Z,67.01
2022-08-07T08:38:57.552Z,66.34
2022-08-07T08:41:58.854Z,65.07
2022-08-07T08:44:45.922Z,64.32
2022-08-07T08:47:28.185Z,64.06
2022-08-07T08:50:06.215Z,63.54
2022-08-07T08:52:40.754Z,63.41
2022-08-07T08:55:55.343Z,63.78
2022-08-07T08:58:54.289Z,65.27
2022-08-07T09:01:43.634Z,64.85
2022-08-07T09:04:49.315Z,65.53
2022-08-07T09:07:34.029Z,67.04
2022-08-07T09:10:37.812Z,65.37
2022-08-07T09:13:19.478Z,64.27
2022-08-07T09:16:35.217Z,63.61
2022-08-07T09:19:50.950Z,61.52
2022-08-07T09:24:32.556Z,61.53
2022-08-07T09:25:31.490Z,61.81
2022-08-07T09:30:01.601Z,60.11
2022-08-07T09:31:19.974Z,60.01
2022-08-07T09:34:06.719Z,60.07
2022-08-07T09:36:49.702Z,59.21
2022-08-07T09:39:54.448Z,57.29
2022-08-07T09:42:17.003Z,58.20
2022-08-07T09:47:27.708Z,59.51
2022-08-07T09:48:06.195Z,59.60
2022-08-07T09:52:10.296Z,59.00
2022-08-07T09:54:27.190Z,56.97
2022-08-07T09:57:15.637Z,56.55
2022-08-07T10:00:03.744Z,57.22
2022-08-07T10:02:55.013Z,55.48
2022-08-07T10:06:01.305Z,54.14
2022-08-07T10:08:36.519Z,54.29
2022-08-07T10:12:01.331Z,53.98
2022-08-07T10:14:42.251Z,52.88
2022-08-07T10:18:00.803Z,52.65
2022-08-07T10:20:56.010Z,53.87
2022-08-07T10:24:04.823Z,52.19
2022-08-07T10:26:53.266Z,51.03
2022-08-07T10:29:45.911Z,49.77
2022-08-07T10:32:37.087Z,48.25
2022-08-07T10:35:55.090Z,51.65
2022-08-07T10:38:46.410Z,51.35
2022-08-07T10:41:46.383Z,50.92
2022-08-07T10:44:45.498Z,50.29
2022-08-07T10:47:53.960Z,50.82
2022-08-07T10:50:25.825Z,49.47
2022-08-07T10:52:52.939Z,49.38
2022-08-07T10:55:38.458Z,49.53
2022-08-07T10:58:32.030Z,49.19
2022-08-07T11:01:35.666Z,49.18
2022-08-07T11:04:46.103Z,50.29
2022-08-07T11:07:58.605Z,49.51
2022-08-07T11:10:29.841Z,49.50
2022-08-07T11:14:44.158Z,50.19
2022-08-07T11:16:19.673Z,49.63
2022-08-07T11:19:05.184Z,49.30
2022-08-07T11:21:50.105Z,49.18
2022-08-07T11:24:33.578Z,48.91
2022-08-07T11:28:00.904Z,48.24
2022-08-07T11:30:18.910Z,47.11
2022-08-07T11:33:02.417Z,46.92
2022-08-07T11:35:59.830Z,48.39
2022-08-07T11:38:33.304Z,46.90
2022-08-07T11:41:18.181Z,46.07
2022-08-07T11:44:18.415Z,45.19
2022-08-07T11:47:04.185Z,45.41
2022-08-07T11:50:11.498Z,44.97
2022-08-07T11:53:05.581Z,45.21
2022-08-07T11:56:13.927Z,46.34
2022-08-07T11:58:49.736Z,45.60
2022-08-07T12:02:20.788Z,45.49
2022-08-07T12:05:09.179Z,44.03
2022-08-07T12:07:53.644Z,44.76
2022-08-07T12:10:37.797Z,45.00
2022-08-07T12:13:37.200Z,45.55
2022-08-07T12:16:30.139Z,43.51
2022-08-07T12:19:56.779Z,44.55
2022-08-07T12:22:39.432Z,44.86
2022-08-07T12:26:23.180Z,43.32
2022-08-07T12:28:57.607Z,44.99
2022-08-07T12:31:52.746Z,43.13
2022-08-07T12:34:32.942Z,43.00
2022-08-07T12:37:01.364Z,40.99
2022-08-07T12:39:43.981Z,42.01
2022-08-07T12:42:27.367Z,41.04
2022-08-07T12:44:58.107Z,41.36
2022-08-07T12:48:13.130Z,41.20
2022-08-07T12:51:12.937Z,40.99
2022-08-07T12:54:03.290Z,40.90
2022-08-07T12:56:51.354Z,39.90
2022-08-07T12:59:33.045Z,40.65
2022-08-07T13:02:41.894Z,40.83
2022-08-07T13:06:02.632Z,41.10
2022-08-07T13:08:51.577Z,39.96
2022-08-07T13:12:01.927Z,41.53
2022-08-07T13:14:55.332Z,40.65
2022-08-07T13:17:49.587Z,40.53
2022-08-07T13:20:27.752Z,40.49
2022-08-07T13:23:59.961Z,39.18
2022-08-07T13:26:05.389Z,38.81
2022-08-07T13:28:44.111Z,38.09
2022-08-07T13:31:55.111Z,37.65
2022-08-07T13:34:51.262Z,39.29
2022-08-07T13:38:04.117Z,37.88
2022-08-07T13:40:54.306Z,36.25
2022-08-07T13:43:23.056Z,35.96
2022-08-07T13:46:10.905Z,35.26
2022-08-07T13:48:52.003Z,35.20
2022-08-07T13:51:28.142Z,35.27
2022-08-07T13:54:16.563Z,33.92
2022-08-07T13:56:51.804Z,34.62
2022-08-07T13:59:27.472Z,35.14
2022-08-07T14:02:12.724Z,34.20
2022-08-07T14:04:50.167Z,33.16
2022-08-07T14:07:23.608Z,33.13
2022-08-07T14:10:15.612Z,33.91
2022-08-07T14:12:54.720Z,34.34
2022-08-07T14:15:31.851Z,33.96
2022-08-07T14:18:29.303Z,33.33
2022-08-07T14:21:11.668Z,33.40
2022-08-07T14:24:02.008Z,32.78
2022-08-07T14:26:40.995Z,33.04
2022-08-07T14:30:11.106Z,32.90
2022-08-07T14:32:10.234Z,32.87
2022-08-07T14:34:47.336Z,33.28
2022-08-07T14:37:17.378Z,33.65
2022-08-07T14:40:17.708Z,32.41
2022-08-07T14:43:55.731Z,31.21
2022-08-07T14:45:46.642Z,31.62
2022-08-07T14:48:20.157Z,31.33
2022-08-07T14:50:55.820Z,30.78
2022-08-07T14:54:05.850Z,30.31
2022-08-07T14:56:15.697Z,31.11
2022-08-07T14:59:02.103Z,30.20
2022-08-07T15:01:42.769Z,30.48
2022-08-07T15:04:18.890Z,30.24
2022-08-07T15:06:47.754Z,30.37
2022-08-07T15:12:11.102Z,29.82
2022-08-07T15:15:07.677Z,30.06
2022-08-07T15:17:55.286Z,29.64
2022-08-07T15:26:21.320Z,29.44
2022-08-07T15:34:50.752Z,29.23
2022-08-07T15:38:17.365Z,29.59
2022-08-07T15:40:34.573Z,28.62
2022-08-07T15:43:52.966Z,28.86
2022-08-07T15:46:31.760Z,28.74
2022-08-07T15:54:44.323Z,27.84
2022-08-07T15:57:40.172Z,28.19
2022-08-07T16:00:04.499Z,28.32
2022-08-07T16:02:46.697Z,28.29
2022-08-07T16:05:20.072Z,28.46
2022-08-07T16:08:31.125Z,28.76
2022-08-07T16:10:43.275Z,28.27
2022-08-07T16:13:58.357Z,28.21
2022-08-07T16:16:49.536Z,28.54
2022-08-07T16:19:41.874Z,28.51
2022-08-07T16:22:55.620Z,28.55
2022-08-07T16:25:55.006Z,28.50
2022-08-07T16:30:05.888Z,28.23
2022-08-07T16:31:51.197Z,28.38
2022-08-07T16:34:48.101Z,28.81
2022-08-07T16:38:04.140Z,28.68
2022-08-07T16:41:01.826Z,28.81
2022-08-07T16:44:04.148Z,28.84
2022-08-07T16:47:04.481Z,28.20
2022-08-07T16:50:27.148Z,28.38
2022-08-07T16:52:51.894Z,28.50
2022-08-07T16:55:58.293Z,28.60
2022-08-07T16:59:14.881Z,28.72
2022-08-07T17:02:12.947Z,30.12
2022-08-07T17:05:05.803Z,29.84
2022-08-07T17:07:55.311Z,30.27
2022-08-07T17:10:54.574Z,29.94
2022-08-07T17:13:41.379Z,30.06
2022-08-07T17:16:33.442Z,30.72
2022-08-07T17:20:00.854Z,30.46
2022-08-07T17:22:30.289Z,30.45
2022-08-07T17:25:10.714Z,31.32
2022-08-07T17:27:58.275Z,31.43
2022-08-07T17:30:30.480Z,32.67
2022-08-07T17:34:09.695Z,34.94
2022-08-07T17:36:20.306Z,36.43
2022-08-07T17:38:55.387Z,35.52
2022-08-07T17:42:04.316Z,34.61
2022-08-07T17:44:45.451Z,33.33
2022-08-07T17:47:38.574Z,33.44
2022-08-07T17:50:30.161Z,34.50
2022-08-07T17:53:01.129Z,35.26
2022-08-07T17:55:55.068Z,36.53
2022-08-07T17:58:37.109Z,36.91
2022-08-07T18:01:17.952Z,37.16
2022-08-07T18:04:07.940Z,38.33
2022-08-07T18:07:19.441Z,38.84
2022-08-07T18:09:48.374Z,39.46
2022-08-07T18:12:55.103Z,39.67
2022-08-07T18:15:32.649Z,40.69
2022-08-07T18:18:44.804Z,40.46
2022-08-07T18:21:37.319Z,41.07
2022-08-07T18:24:33.034Z,42.30
2022-08-07T18:27:25.583Z,42.89
2022-08-07T18:30:31.377Z,42.48
2022-08-07T18:33:22.138Z,43.23
2022-08-07T18:36:14.169Z,43.68
2022-08-07T18:38:58.087Z,43.85
2022-08-07T18:42:05.041Z,44.53
2022-08-07T18:45:43.855Z,44.83
2022-08-07T18:48:01.460Z,44.79
2022-08-07T18:50:48.532Z,44.84
2022-08-07T18:53:39.932Z,45.44
2022-08-07T18:56:16.468Z,45.89
2022-08-07T18:59:00.129Z,46.06
2022-08-07T19:02:19.301Z,46.40
2022-08-07T19:04:57.830Z,46.24
2022-08-07T19:07:51.530Z,46.42
2022-08-07T19:10:31.572Z,47.08
2022-08-07T19:13:12.080Z,47.34
2022-08-07T19:16:04.438Z,47.71
2022-08-07T19:18:52.000Z,47.85
2022-08-07T19:21:44.310Z,48.41
2022-08-07T19:24:46.231Z,48.41
2022-08-07T19:28:57.821Z,48.57
2022-08-07T19:31:04.229Z,48.71
2022-08-07T19:33:10.070Z,49.00
2022-08-07T19:35:46.169Z,49.39
2022-08-07T19:38:17.711Z,49.36
2022-08-07T19:40:50.591Z,50.27
2022-08-07T19:43:48.980Z,50.24
2022-08-07T19:46:26.607Z,51.21
2022-08-07T19:49:58.103Z,51.52
2022-08-07T19:52:18.082Z,51.62
2022-08-07T19:54:56.194Z,51.54
2022-08-07T19:58:02.713Z,52.00
2022-08-07T20:00:29.006Z,52.17
2022-08-07T20:03:06.769Z,52.24
2022-08-07T20:06:02.200Z,52.74
2022-08-07T20:08:33.068Z,52.97
2022-08-07T20:11:10.393Z,52.88
2022-08-07T20:13:43.450Z,54.00
2022-08-07T20:16:34.896Z,54.68
2022-08-07T20:19:05.920Z,55.32
2022-08-07T20:21:47.141Z,55.35
2022-08-07T20:24:24.020Z,55.96
2022-08-07T20:27:01.887Z,56.29
2022-08-07T20:29:47.818Z,56.90
2022-08-07T20:32:39.783Z,57.11
2022-08-07T20:35:21.995Z,57.05
2022-08-07T20:37:59.646Z,57.29
2022-08-07T20:40:32.280Z,57.57
2022-08-07T20:43:01.073Z,57.05
2022-08-07T20:46:24.349Z,58.35
2022-08-07T20:48:28.620Z,59.21
2022-08-07T20:51:01.386Z,59.98
2022-08-07T20:54:04.481Z,59.60
2022-08-07T20:56:16.700Z,59.91
2022-08-07T20:58:56.158Z,60.14
2022-08-07T21:01:29.747Z,61.01
2022-08-07T21:04:23.304Z,60.73
2022-08-07T21:06:53.214Z,61.14
2022-08-07T21:09:24.341Z,61.83
2022-08-07T21:11:57.076Z,62.16
2022-08-07T21:14:31.703Z,63.22
2022-08-07T21:18:06.507Z,63.33
2022-08-07T21:20:04.630Z,63.89
2022-08-07T21:22:51.378Z,64.58
2022-08-07T21:25:19.993Z,64.70
2022-08-07T21:28:47.729Z,64.43
2022-08-07T21:32:47.065Z,64.60
2022-08-07T21:34:58.007Z,65.59
2022-08-07T21:37:58.929Z,65.66
2022-08-07T21:40:50.151Z,65.53
2022-08-07T21:43:23.241Z,66.50
2022-08-07T21:46:13.946Z,66.48
2022-08-07T21:49:14.674Z,67.23
2022-08-07T21:52:13.016Z,66.94
2022-08-07T21:55:02.218Z,67.22
2022-08-07T21:57:40.002Z,67.38
2022-08-07T22:00:22.732Z,67.65
2022-08-07T22:03:05.801Z,67.39
2022-08-07T22:05:44.728Z,67.71
2022-08-07T22:08:18.318Z,68.24
2022-08-07T22:10:49.704Z,68.95
2022-08-07T22:13:17.353Z,69.08
2022-08-07T22:16:41.977Z,69.24
2022-08-07T22:19:01.001Z,69.85
2022-08-07T22:22:04.822Z,69.64
2022-08-07T22:24:56.844Z,69.37
2022-08-07T22:27:34.235Z,69.77
2022-08-07T22:30:22.178Z,70.22
2022-08-07T22:33:07.190Z,70.10
2022-08-07T22:35:51.220Z,70.09
2022-08-07T22:38:26.497Z,70.36
2022-08-07T22:41:07.447Z,70.31
2022-08-07T22:43:45.727Z,70.89
2022-08-07T22:47:03.069Z,70.87
2022-08-07T22:49:33.913Z,70.65
2022-08-07T22:52:39.586Z,70.88
2022-08-07T22:55:38.544Z,71.08
2022-08-07T22:58:42.239Z,71.20
2022-08-07T23:01:15.363Z,71.64
2022-08-07T23:03:59.013Z,71.43
2022-08-07T23:06:55.171Z,71.41
2022-08-07T23:10:06.381Z,71.79
2022-08-07T23:13:06.047Z,71.87
2022-08-07T23:16:05.969Z,72.01
2022-08-07T23:18:43.659Z,71.87
2022-08-07T23:21:29.848Z,72.05
2022-08-07T23:24:53.037Z,72.49
2022-08-07T23:28:21.312Z,72.40
2022-08-07T23:31:07.092Z,72.40
2022-08-07T23:34:22.731Z,72.84
2022-08-07T23:37:17.833Z,73.13
2022-08-07T23:40:07.563Z,73.40
2022-08-07T23:42:43.830Z,73.27
2022-08-07T23:45:33.174Z,72.98
2022-08-07T23:48:25.070Z,73.29
2022-08-07T23:50:58.896Z,73.38
2022-08-07T23:53:51.400Z,72.82
2022-08-07T23:56:37.962Z,73.35
